createdAt,value
2022-11-25T00:00:00.310Z,0.0
2022-11-25T00:05:00.262Z,0.0
2022-11-25T00:10:00.267Z,0.0
2022-11-25T00:15:00.259Z,0.0
2022-11-25T00:20:00.432Z,0.0
2022-11-25T00:25:00.244Z,0.0
2022-11-25T00:30:00.394Z,0.0
2022-11-25T00:35:00.257Z,0.0
2022-11-25T00:40:00.274Z,0.0
2022-11-25T00:45:00.345Z,0.0
2022-11-25T00:50:00.294Z,0.0
2022-11-25T00:55:00.435Z,0.0
2022-11-25T01:00:00.431Z,0.0
2022-11-25T01:05:00.429Z,0.0
2022-11-25T01:10:00.252Z,0.0
2022-11-25T01:15:00.247Z,0.0
2022-11-25T01:20:00.288Z,0.0
2022-11-25T01:25:00.266Z,0.0
2022-11-25T01:30:00.326Z,0.0
2022-11-25T01:35:00.256Z,0.0
2022-11-25T01:40:00.278Z,0.0
2022-11-25T01:45:00.262Z,0.0
2022-11-25T01:50:00.271Z,0.0
2022-11-25T01:55:00.262Z,0.7
2022-11-25T02:00:00.273Z,0.0
2022-11-25T02:05:00.255Z,0.0
2022-11-25T02:10:00.270Z,0.0
2022-11-25T02:15:00.397Z,0.0
2022-11-25T02:20:00.279Z,1.7
2022-11-25T02:25:00.255Z,0.2
2022-11-25T02:30:00.295Z,1.3
2022-11-25T02:35:00.261Z,0.2
2022-11-25T02:40:00.252Z,3.9
2022-11-25T02:45:00.272Z,2.6
2022-11-25T02:50:00.277Z,1.3
2022-11-25T02:55:00.257Z,1.1
2022-11-25T03:00:00.332Z,1.4
2022-11-25T03:05:00.276Z,0.1
2022-11-25T03:10:00.314Z,0.0
2022-11-25T03:15:00.626Z,0.0
2022-11-25T03:20:00.586Z,0.0
2022-11-25T03:25:00.232Z,0.0
2022-11-25T03:30:00.286Z,0.2
2022-11-25T03:35:00.254Z,0.0
2022-11-25T03:40:00.316Z,0.0
2022-11-25T03:45:00.275Z,0.0
2022-11-25T03:50:00.310Z,0.0
2022-11-25T03:55:00.256Z,0.0
2022-11-25T04:00:00.301Z,0.0
2022-11-25T04:05:00.238Z,2.5
2022-11-25T04:10:00.272Z,0.0
2022-11-25T04:15:00.346Z,0.0
2022-11-25T04:20:00.288Z,0.0
2022-11-25T04:25:00.270Z,1.2
2022-11-25T04:30:00.351Z,0.1
2022-11-25T04:35:00.275Z,0.4
2022-11-25T04:40:00.291Z,0.0
2022-11-25T04:45:23.215Z,0.0
2022-11-25T04:50:00.270Z,0.0
2022-11-25T04:55:00.271Z,0.0
2022-11-25T05:00:00.319Z,0.5
2022-11-25T05:05:00.236Z,0.0
2022-11-25T05:10:00.261Z,0.0
2022-11-25T05:15:00.274Z,0.0
2022-11-25T05:20:00.306Z,0.0
2022-11-25T05:25:00.249Z,0.0
2022-11-25T05:30:00.290Z,0.0
2022-11-25T05:35:00.377Z,0.1
2022-11-25T05:40:00.266Z,0.0
2022-11-25T05:45:00.292Z,0.0
2022-11-25T05:50:00.292Z,0.0
2022-11-25T05:55:00.385Z,0.0
2022-11-25T06:00:00.350Z,0.3
2022-11-25T06:05:00.258Z,1.3
2022-11-25T06:10:03.721Z,0.0
2022-11-25T06:15:00.304Z,2.2
2022-11-25T06:20:00.308Z,0.1
2022-11-25T06:25:04.325Z,2.5
2022-11-25T06:30:00.343Z,0.3
2022-11-25T06:35:00.299Z,0.0
2022-11-25T06:40:00.318Z,0.0
2022-11-25T06:45:00.354Z,0.0
2022-11-25T06:50:00.337Z,0.0
2022-11-25T06:55:00.261Z,0.0
2022-11-25T07:00:00.349Z,0.0
2022-11-25T07:05:00.274Z,0.0
2022-11-25T07:10:00.386Z,0.0
2022-11-25T07:15:00.255Z,0.0
2022-11-25T07:20:00.333Z,0.0
2022-11-25T07:25:00.255Z,0.0
2022-11-25T07:30:54.769Z,0.1
2022-11-25T07:35:00.267Z,0.4
2022-11-25T07:40:00.433Z,0.7
2022-11-25T07:45:00.274Z,1.5
2022-11-25T07:50:00.259Z,0.0
2022-11-25T07:55:00.303Z,0.6
2022-11-25T08:00:00.311Z,0.6
2022-11-25T08:05:00.267Z,1.4
2022-11-25T08:10:00.289Z,0.4
2022-11-25T08:15:00.282Z,1.7
2022-11-25T08:20:00.281Z,0.7
2022-11-25T08:25:00.278Z,0.0
2022-11-25T08:30:00.292Z,0.5
2022-11-25T08:35:00.268Z,1.4
2022-11-25T08:40:01.324Z,1.4
2022-11-25T08:45:00.373Z,2.4
2022-11-25T08:50:00.267Z,1.3
2022-11-25T08:55:00.354Z,0.8
2022-11-25T09:00:00.401Z,0.2
2022-11-25T09:05:00.287Z,0.5
2022-11-25T09:10:00.309Z,2.2
2022-11-25T09:15:00.327Z,1.0
2022-11-25T09:20:00.330Z,1.6
2022-11-25T09:25:00.301Z,0.1
2022-11-25T09:30:00.304Z,1.0
2022-11-25T09:35:00.279Z,0.6
2022-11-25T09:40:00.346Z,0.4
2022-11-25T09:45:00.293Z,0.7
2022-11-25T09:50:00.466Z,0.9
2022-11-25T09:55:00.287Z,0.0
2022-11-25T10:00:00.405Z,1.8
2022-11-25T10:05:00.275Z,1.2
2022-11-25T10:10:00.368Z,0.5
2022-11-25T10:15:00.307Z,0.5
2022-11-25T10:20:00.330Z,0.1
2022-11-25T10:25:00.305Z,1.7
2022-11-25T10:30:00.318Z,0.2
2022-11-25T10:35:00.347Z,0.4
2022-11-25T10:40:00.300Z,1.6
2022-11-25T10:45:00.316Z,0.9
2022-11-25T10:50:00.271Z,0.8
2022-11-25T10:55:00.347Z,1.5
2022-11-25T11:00:00.407Z,0.6
2022-11-25T11:05:00.564Z,2.9
2022-11-25T11:10:00.301Z,3.4
2022-11-25T11:15:00.352Z,3.3
2022-11-25T11:20:00.293Z,3.4
2022-11-25T11:25:00.799Z,6.1
2022-11-25T11:30:00.292Z,5.3
2022-11-25T11:35:00.336Z,5.7
2022-11-25T11:40:00.468Z,2.9
2022-11-25T11:45:00.315Z,3.3
2022-11-25T11:50:00.443Z,6.3
2022-11-25T11:55:00.280Z,5.4
2022-11-25T12:00:00.314Z,7.3
2022-11-25T12:05:00.738Z,5.5
2022-11-25T12:10:00.295Z,5.5
2022-11-25T12:15:00.532Z,5.1
2022-11-25T12:20:00.279Z,4.6
2022-11-25T12:25:00.302Z,5.9
2022-11-25T12:30:00.347Z,5.1
2022-11-25T12:35:00.589Z,3.4
2022-11-25T12:40:00.281Z,2.3
2022-11-25T12:45:00.343Z,4.4
2022-11-25T12:50:00.328Z,0.3
2022-11-25T12:55:00.265Z,0.2
2022-11-25T13:00:39.715Z,0.1
2022-11-25T13:05:33.169Z,1.5
2022-11-25T13:10:00.374Z,0.3
2022-11-25T13:15:01.598Z,0.3
2022-11-25T13:20:00.427Z,3.0
2022-11-25T13:25:00.262Z,3.5
2022-11-25T13:30:00.426Z,3.1
2022-11-25T13:35:00.446Z,1.1
2022-11-25T13:40:00.270Z,1.4
2022-11-25T13:45:00.404Z,2.4
2022-11-25T13:50:00.292Z,2.6
2022-11-25T13:55:00.278Z,1.0
2022-11-25T14:00:00.314Z,0.5
2022-11-25T14:05:00.315Z,0.7
2022-11-25T14:10:00.278Z,1.6
2022-11-25T14:15:00.368Z,2.1
2022-11-25T14:20:01.186Z,2.0
2022-11-25T14:25:00.284Z,1.5
2022-11-25T14:30:00.322Z,2.0
2022-11-25T14:35:00.260Z,0.4
2022-11-25T14:40:00.275Z,0.2
2022-11-25T14:45:00.367Z,0.8
2022-11-25T14:50:33.467Z,0.8
2022-11-25T14:55:00.251Z,0.3
2022-11-25T15:00:00.323Z,0.4
2022-11-25T15:05:00.304Z,0.9
2022-11-25T15:10:00.299Z,1.2
2022-11-25T15:15:00.515Z,0.1
2022-11-25T15:20:00.314Z,0.3
2022-11-25T15:25:00.353Z,0.9
2022-11-25T15:30:00.399Z,0.1
2022-11-25T15:35:00.284Z,0.4
2022-11-25T15:40:00.456Z,0.1
2022-11-25T15:45:08.631Z,0.2
2022-11-25T15:50:00.553Z,0.1
2022-11-25T15:55:00.265Z,0.5
2022-11-25T16:00:00.566Z,0.5
2022-11-25T16:05:04.945Z,1.6
2022-11-25T16:10:00.353Z,0.6
2022-11-25T16:15:00.472Z,0.4
2022-11-25T16:20:00.526Z,0.1
2022-11-25T16:25:03.132Z,0.2
2022-11-25T16:30:00.324Z,0.0
2022-11-25T16:35:00.364Z,0.0
2022-11-25T16:40:00.449Z,0.0
2022-11-25T16:45:00.698Z,2.1
2022-11-25T16:50:00.445Z,0.0
2022-11-25T16:55:00.368Z,0.1
2022-11-25T17:00:00.297Z,0.8
2022-11-25T17:05:00.276Z,0.0
2022-11-25T17:10:00.320Z,0.0
2022-11-25T17:15:00.979Z,0.0
2022-11-25T17:20:00.279Z,0.0
2022-11-25T17:25:00.360Z,0.0
2022-11-25T17:30:00.313Z,0.1
2022-11-25T17:35:00.281Z,0.0
2022-11-25T17:40:00.338Z,0.0
2022-11-25T17:45:00.353Z,0.0
2022-11-25T17:50:00.316Z,0.0
2022-11-25T17:55:00.401Z,0.0
2022-11-25T18:00:00.321Z,0.0
2022-11-25T18:05:00.302Z,0.0
2022-11-25T18:10:00.530Z,0.0
2022-11-25T18:15:00.768Z,0.0
2022-11-25T18:20:00.368Z,0.0
2022-11-25T18:25:08.183Z,0.0
2022-11-25T18:30:00.304Z,0.0
2022-11-25T18:35:00.306Z,0.0
2022-11-25T18:40:00.292Z,0.0
2022-11-25T18:45:00.365Z,0.0
2022-11-25T18:50:00.329Z,0.0
2022-11-25T18:55:00.335Z,0.0
2022-11-25T19:00:30.826Z,0.0
2022-11-25T19:05:00.236Z,0.0
2022-11-25T19:10:00.357Z,0.0
2022-11-25T19:15:00.290Z,0.0
2022-11-25T19:20:00.294Z,0.0
2022-11-25T19:25:00.291Z,0.0
2022-11-25T19:30:00.369Z,0.0
2022-11-25T19:35:00.348Z,0.0
2022-11-25T19:40:00.327Z,0.0
2022-11-25T19:45:00.270Z,0.0
2022-11-25T19:50:00.297Z,0.0
2022-11-25T19:55:00.314Z,0.0
2022-11-25T20:00:00.298Z,0.0
2022-11-25T20:05:00.509Z,0.0
2022-11-25T20:10:00.353Z,0.0
2022-11-25T20:15:00.299Z,0.0
2022-11-25T20:20:00.325Z,0.0
2022-11-25T20:25:00.247Z,0.0
2022-11-25T20:30:00.327Z,0.0
2022-11-25T20:35:00.289Z,0.0
2022-11-25T20:40:00.296Z,0.0
2022-11-25T20:45:00.300Z,0.0
2022-11-25T20:50:00.269Z,0.0
2022-11-25T20:55:00.302Z,0.0
2022-11-25T21:00:00.319Z,0.0
2022-11-25T21:05:00.255Z,0.0
2022-11-25T21:10:00.325Z,0.0
2022-11-25T21:15:00.366Z,0.0
2022-11-25T21:20:00.509Z,0.0
2022-11-25T21:25:00.284Z,0.0
2022-11-25T21:30:00.325Z,0.0
2022-11-25T21:35:00.371Z,0.0
2022-11-25T21:40:00.304Z,0.0
2022-11-25T21:45:00.626Z,0.0
2022-11-25T21:50:00.927Z,0.0
2022-11-25T21:55:00.502Z,0.0
2022-11-25T22:00:00.351Z,0.0
2022-11-25T22:05:00.248Z,0.0
2022-11-25T22:10:00.270Z,0.0
2022-11-25T22:15:00.278Z,0.0
2022-11-25T22:20:00.304Z,0.0
2022-11-25T22:25:00.256Z,0.0
2022-11-25T22:30:00.344Z,0.0
2022-11-25T22:35:00.325Z,0.0
2022-11-25T22:40:00.291Z,0.3
2022-11-25T22:45:00.275Z,3.1
2022-11-25T22:50:00.277Z,1.8
2022-11-25T22:55:00.318Z,1.0
2022-11-25T23:00:00.567Z,0.2
2022-11-25T23:05:00.955Z,1.7
2022-11-25T23:10:00.280Z,0.6
2022-11-25T23:15:00.271Z,0.7
2022-11-25T23:20:00.275Z,1.1
2022-11-25T23:25:00.282Z,2.2
2022-11-25T23:30:00.286Z,0.0
2022-11-25T23:35:00.253Z,0.3
2022-11-25T23:40:00.282Z,1.0
2022-11-25T23:45:00.264Z,2.3
2022-11-25T23:50:00.416Z,2.5
2022-11-25T23:55:00.300Z,1.9
